createdAt,value
2022-09-30T00:02:26.409Z,19.03
2022-09-30T00:07:34.292Z,20.77
2022-09-30T00:12:43.180Z,16.70
2022-09-30T00:17:51.228Z,16.33
2022-09-30T00:22:59.460Z,15.37
2022-09-30T00:28:08.232Z,13.73
2022-09-30T00:38:29.466Z,16.23
2022-09-30T00:43:41.622Z,16.57
2022-09-30T00:48:54.116Z,15.67
2022-09-30T00:54:04.601Z,15.63
2022-09-30T00:59:15.752Z,15.93
2022-09-30T01:04:24.948Z,21.37
2022-09-30T01:09:35.196Z,19.43
2022-09-30T01:14:43.075Z,17.93
2022-09-30T01:19:57.304Z,18.47
2022-09-30T01:25:05.795Z,20.33
2022-09-30T01:30:18.332Z,19.63
2022-09-30T01:35:29.463Z,20.43
2022-09-30T01:40:40.533Z,20.10
2022-09-30T01:45:51.403Z,23.43
2022-09-30T01:51:00.807Z,20.30
2022-09-30T01:56:13.136Z,18.97
2022-09-30T02:01:25.714Z,19.53
2022-09-30T02:06:38.112Z,18.60
2022-09-30T02:11:45.918Z,20.30
2022-09-30T02:17:01.076Z,20.73
2022-09-30T02:22:12.031Z,21.83
2022-09-30T02:27:23.372Z,24.27
2022-09-30T02:32:33.283Z,24.10
2022-09-30T02:38:03.774Z,23.20
2022-09-30T02:43:12.005Z,23.27
2022-09-30T02:48:23.176Z,23.47
2022-09-30T02:53:35.394Z,23.77
2022-09-30T02:58:43.747Z,23.30
2022-09-30T03:03:53.615Z,22.30
2022-09-30T03:09:01.589Z,21.67
2022-09-30T03:14:13.432Z,23.03
2022-09-30T03:19:25.233Z,23.70
2022-09-30T03:24:36.827Z,22.80
2022-09-30T03:29:48.167Z,23.43
2022-09-30T03:34:59.655Z,24.03
2022-09-30T03:40:11.979Z,27.07
2022-09-30T03:45:24.477Z,23.77
2022-09-30T03:50:32.410Z,21.47
2022-09-30T03:55:44.429Z,28.33
2022-09-30T04:00:53.842Z,25.20
2022-09-30T04:06:03.951Z,24.03
2022-09-30T04:11:12.832Z,24.63
2022-09-30T04:16:20.856Z,23.37
2022-09-30T04:21:29.153Z,24.13
2022-09-30T04:26:37.187Z,24.63
2022-09-30T04:31:45.224Z,24.30
2022-09-30T04:36:53.229Z,23.33
2022-09-30T04:42:01.145Z,22.70
2022-09-30T04:47:09.376Z,23.20
2022-09-30T04:52:17.213Z,23.73
2022-09-30T04:57:25.634Z,22.20
2022-09-30T05:02:33.703Z,23.40
2022-09-30T05:07:43.980Z,22.97
2022-09-30T05:12:53.233Z,23.67
2022-09-30T05:18:02.230Z,24.07
2022-09-30T05:23:10.091Z,25.60
2022-09-30T05:28:18.078Z,25.30
2022-09-30T05:33:26.084Z,25.80
2022-09-30T05:38:34.230Z,24.77
2022-09-30T05:43:45.629Z,36.23
2022-09-30T05:48:55.543Z,37.27
2022-09-30T05:54:03.825Z,30.10
2022-09-30T05:59:11.727Z,26.73
2022-09-30T06:04:19.949Z,27.27
2022-09-30T06:09:28.776Z,26.60
2022-09-30T06:14:37.257Z,24.83
2022-09-30T06:19:45.215Z,23.53
2022-09-30T06:24:55.268Z,24.53
2022-09-30T06:30:03.384Z,23.57
2022-09-30T06:35:11.467Z,24.80
2022-09-30T06:40:21.534Z,23.43
2022-09-30T06:45:32.920Z,22.73
2022-09-30T06:50:41.102Z,22.47
2022-09-30T06:55:50.010Z,25.27
2022-09-30T07:01:01.786Z,22.67
2022-09-30T07:06:09.754Z,22.85
2022-09-30T07:11:18.162Z,22.27
2022-09-30T07:16:26.079Z,22.73
2022-09-30T07:21:34.382Z,21.77
2022-09-30T07:26:42.339Z,22.20
2022-09-30T07:31:50.448Z,19.30
2022-09-30T07:36:58.972Z,20.57
2022-09-30T07:42:06.892Z,20.60
2022-09-30T07:47:15.320Z,20.70
2022-09-30T07:52:23.350Z,19.30
2022-09-30T07:57:31.835Z,20.13
2022-09-30T08:02:40.239Z,19.97
2022-09-30T08:07:48.101Z,21.30
2022-09-30T08:12:58.574Z,19.17
2022-09-30T08:18:05.922Z,19.03
2022-09-30T08:23:14.013Z,18.43
2022-09-30T08:28:22.496Z,17.50
2022-09-30T08:33:30.490Z,18.60
2022-09-30T08:38:38.501Z,17.03
2022-09-30T08:49:03.563Z,16.27
2022-09-30T08:54:15.566Z,16.70
2022-09-30T08:59:33.389Z,15.80
2022-09-30T09:04:41.392Z,14.23
2022-09-30T09:09:52.882Z,15.37
2022-09-30T09:15:03.854Z,13.70
2022-09-30T09:20:16.001Z,12.13
2022-09-30T09:25:28.408Z,12.27
2022-09-30T09:30:42.469Z,9.83
2022-09-30T09:35:54.499Z,12.30
2022-09-30T09:41:05.640Z,10.20
2022-09-30T09:46:16.807Z,9.13
2022-09-30T09:51:32.008Z,9.33
2022-09-30T09:56:39.922Z,11.60
2022-09-30T10:01:51.202Z,11.03
2022-09-30T10:07:00.690Z,9.83
2022-09-30T10:12:12.385Z,9.73
2022-09-30T10:17:21.961Z,9.20
2022-09-30T10:22:36.137Z,8.37
2022-09-30T10:27:47.736Z,9.77
2022-09-30T10:32:55.724Z,8.93
2022-09-30T10:38:03.784Z,8.00
2022-09-30T10:43:15.424Z,6.83
2022-09-30T10:48:24.524Z,7.97
2022-09-30T10:53:35.745Z,6.87
2022-09-30T10:58:48.299Z,6.97
2022-09-30T11:04:02.398Z,6.13
2022-09-30T11:09:14.152Z,6.50
2022-09-30T11:14:43.022Z,6.13
2022-09-30T11:19:55.277Z,5.47
2022-09-30T11:25:07.440Z,4.40
2022-09-30T11:30:16.441Z,4.63
2022-09-30T11:35:27.503Z,3.57
2022-09-30T11:40:40.141Z,3.07
2022-09-30T11:45:53.509Z,3.90
2022-09-30T11:56:19.824Z,3.70
2022-09-30T12:01:32.324Z,3.10
2022-09-30T12:06:42.967Z,3.07
2022-09-30T12:11:54.274Z,3.27
2022-09-30T12:17:03.985Z,4.00
2022-09-30T12:22:15.544Z,3.93
2022-09-30T12:27:26.480Z,3.37
2022-09-30T12:32:37.900Z,4.10
2022-09-30T12:37:49.060Z,3.73
2022-09-30T12:48:17.392Z,2.87
2022-09-30T12:53:27.060Z,2.60
2022-09-30T12:58:38.206Z,3.23
2022-09-30T13:03:49.075Z,2.47
2022-09-30T13:09:01.548Z,2.83
2022-09-30T13:14:12.742Z,2.67
2022-09-30T13:19:22.823Z,3.17
2022-09-30T13:24:34.755Z,2.80
2022-09-30T13:29:46.330Z,3.07
2022-09-30T13:34:56.877Z,2.70
2022-09-30T13:40:06.737Z,2.20
2022-09-30T13:45:17.878Z,2.90
2022-09-30T13:50:31.490Z,3.03
2022-09-30T13:55:42.440Z,3.33
2022-09-30T14:00:55.625Z,3.70
2022-09-30T14:06:06.684Z,3.50
2022-09-30T14:11:18.400Z,3.30
2022-09-30T14:16:31.844Z,3.20
2022-09-30T14:21:44.767Z,2.97
2022-09-30T14:26:59.817Z,2.80
2022-09-30T14:32:10.897Z,3.70
2022-09-30T14:37:22.480Z,3.37
2022-09-30T14:42:33.047Z,3.97
2022-09-30T14:47:44.345Z,3.73
2022-09-30T14:52:54.128Z,3.17
2022-09-30T14:58:05.758Z,4.10
2022-09-30T15:03:14.575Z,3.27
2022-09-30T15:08:24.528Z,3.60
2022-09-30T15:13:32.738Z,3.50
2022-09-30T15:18:44.131Z,3.50
2022-09-30T15:23:53.998Z,3.70
2022-09-30T15:29:03.795Z,3.83
2022-09-30T15:39:36.316Z,5.60
2022-09-30T15:44:45.846Z,5.23
2022-09-30T15:49:54.518Z,4.07
2022-09-30T15:55:05.507Z,4.80
2022-09-30T16:00:19.871Z,4.90
2022-09-30T16:05:32.269Z,3.80
2022-09-30T16:10:40.753Z,5.00
2022-09-30T16:15:53.018Z,6.00
2022-09-30T16:21:19.394Z,5.27
2022-09-30T16:26:34.451Z,4.70
2022-09-30T16:31:58.316Z,6.97
2022-09-30T16:37:21.656Z,7.57
2022-09-30T16:42:36.188Z,6.77
2022-09-30T16:47:45.311Z,7.83
2022-09-30T16:52:53.899Z,9.80
2022-09-30T16:58:09.569Z,7.83
2022-09-30T17:03:20.965Z,6.00
2022-09-30T17:08:29.076Z,5.77
2022-09-30T17:13:37.574Z,6.43
2022-09-30T17:18:46.387Z,7.63
2022-09-30T17:23:56.092Z,9.83
2022-09-30T17:29:21.030Z,10.57
2022-09-30T17:34:14.824Z,9.67
2022-09-30T17:39:23.108Z,10.63
2022-09-30T17:44:32.137Z,11.70
2022-09-30T17:49:40.382Z,10.87
2022-09-30T17:54:52.426Z,11.47
2022-09-30T18:00:00.839Z,13.93
2022-09-30T18:05:09.870Z,14.93
2022-09-30T18:10:19.126Z,17.33
2022-09-30T18:15:27.959Z,16.93
2022-09-30T18:20:36.615Z,15.50
2022-09-30T18:25:45.171Z,16.67
2022-09-30T18:30:53.813Z,16.43
2022-09-30T18:36:04.155Z,17.20
2022-09-30T18:41:12.615Z,17.00
2022-09-30T18:46:20.994Z,14.70
2022-09-30T18:51:33.559Z,15.00
2022-09-30T18:56:42.304Z,15.97
2022-09-30T19:01:51.999Z,20.77
2022-09-30T19:07:01.354Z,23.10
2022-09-30T19:12:09.991Z,24.33
2022-09-30T19:17:21.356Z,25.83
2022-09-30T19:22:31.972Z,24.13
2022-09-30T19:27:44.016Z,23.03
2022-09-30T19:33:01.610Z,23.93
2022-09-30T19:38:15.571Z,23.00
2022-09-30T19:43:25.984Z,22.20
2022-09-30T19:48:38.506Z,21.13
2022-09-30T19:54:03.434Z,20.83
2022-09-30T19:59:01.071Z,23.00
2022-09-30T20:04:13.474Z,24.73
2022-09-30T20:09:21.998Z,25.50
2022-09-30T20:14:32.461Z,25.30
2022-09-30T20:19:41.541Z,25.73
2022-09-30T20:24:50.096Z,26.87
2022-09-30T20:30:07.026Z,26.60
2022-09-30T20:35:16.153Z,23.52
2022-09-30T20:40:24.305Z,23.47
2022-09-30T20:45:33.272Z,26.03
2022-09-30T20:50:43.914Z,28.17
2022-09-30T20:55:52.307Z,27.60
2022-09-30T21:01:07.099Z,25.73
2022-09-30T21:06:15.618Z,27.67
2022-09-30T21:11:24.047Z,32.77
2022-09-30T21:16:34.410Z,31.93
2022-09-30T21:21:42.606Z,35.97
2022-09-30T21:26:50.968Z,38.03
2022-09-30T21:31:59.210Z,29.50
2022-09-30T21:37:07.500Z,30.07
2022-09-30T21:42:16.018Z,27.13
2022-09-30T21:47:24.738Z,27.83
2022-09-30T21:52:34.287Z,27.10
2022-09-30T21:57:42.444Z,28.73
2022-09-30T22:02:51.682Z,31.80
2022-09-30T22:08:01.340Z,33.23
2022-09-30T22:13:09.360Z,31.07
2022-09-30T22:18:18.343Z,29.87
2022-09-30T22:23:27.356Z,26.00
2022-09-30T22:28:36.802Z,26.33
2022-09-30T22:33:48.197Z,23.93
2022-09-30T22:38:56.160Z,24.33
2022-09-30T22:44:04.241Z,25.43
2022-09-30T22:49:12.167Z,24.50
2022-09-30T22:54:20.292Z,23.93
2022-09-30T22:59:28.426Z,24.40
2022-09-30T23:04:36.541Z,23.00
2022-09-30T23:09:45.057Z,22.63
2022-09-30T23:14:54.120Z,24.37
2022-09-30T23:20:02.825Z,23.07
2022-09-30T23:25:11.699Z,22.97
2022-09-30T23:30:19.737Z,24.47
2022-09-30T23:35:28.024Z,25.93
2022-09-30T23:40:35.855Z,30.97
2022-09-30T23:45:44.018Z,27.30
2022-09-30T23:50:52.302Z,28.60
2022-09-30T23:56:03.096Z,25.97
